• Join FlightAware (Why Join?)
  • Login
  • US Flag 
05:50AM EDT


 

Airport Tracker/Info


-or-


 

Live Flight TrackerFlight Track Log ✈ N544PS ✈ 29-Apr-2013 ✈ KPSP - KPDX

Flight Track Log - Related Links

Times and Time Zones

All times are in EDT time to prevent confusion due to time zone crossing. See the N544PS flight status page for this flight to view local times or setup timezone preferences in your user account.

Time Position Orientation Groundspeed Altitude Reporting Facility
EDT Latitude Longitude Course Direction KTS MPH feet Rate Location/Type
06:18PM 33.8500 -116.5167 309° West 170 196 1,400  Level Southern California TRACON
06:19PM 33.8833 -116.5667 309° West 183 211 3,600 2,040 Climbing Southern California TRACON
06:20PM 33.9333 -116.5500 15° North 223 257 5,500 2,040 Climbing Southern California TRACON
06:21PM 33.9914 -116.5256 19° North 203 234 8,000 2,100 Climbing Los Angeles Center
06:22PM 34.0553 -116.5219 North 217 250 10,200 2,280 Climbing Los Angeles Center
06:23PM 34.1269 -116.5300 355° North 237 273 12,800 2,220 Climbing Los Angeles Center
06:24PM 34.1931 -116.5567 342° North 249 287 14,900 1,980 Climbing Los Angeles Center
06:25PM 34.2611 -116.5814 343° North 254 292 17,000 2,040 Climbing Los Angeles Center
06:26PM 34.3303 -116.6094 341° North 260 299 19,200 1,440 Climbing Los Angeles Center
06:27PM 34.4047 -116.6394 342° North 280 322 20,000 360 Climbing Los Angeles Center
06:28PM 34.4908 -116.6825 338° Northwest 333 383 20,000 480 Level Los Angeles Center
06:29PM 34.5203 -116.8200 285° West 351 404 21,000 1,200 Climbing Los Angeles Center
06:30PM 34.5278 -116.9347 275° West 343 395 22,600 1,500 Climbing Los Angeles Center
06:31PM 34.5383 -117.0447 277° West 332 382 24,200 1,440 Climbing Los Angeles Center
06:33PM 34.5489 -117.1550 277° West 329 379 25,600 840 Climbing Los Angeles Center
06:34PM 34.5597 -117.2678 277° West 334 384 26,000 720 Climbing Los Angeles Center
06:35PM 34.5706 -117.3886 276° West 355 409 27,100 1,320 Climbing Los Angeles Center
06:36PM 34.5831 -117.5297 276° West 351 404 28,800 1,380 Climbing Los Angeles Center
06:37PM 34.5928 -117.6431 276° West 342 394 30,000 540 Climbing Los Angeles Center
06:38PM 34.6042 -117.7608 277° West 349 402 30,000  Level Los Angeles Center
06:39PM 34.6133 -117.8892 275° West 374 430 30,000  Level Los Angeles Center
06:40PM 34.6261 -118.0192 277° West 382 440 30,000 480 Level Los Angeles Center
06:41PM 34.6778 -118.1333 299° West 386 444 31,100 1,440 Climbing Los Angeles Center
06:42PM 34.7411 -118.2219 311° West 346 398 33,000 1,380 Climbing Los Angeles Center
06:43PM 34.8103 -118.3244 309° West 326 375 34,000 480 Climbing Los Angeles Center
06:44PM 34.8742 -118.4167 310° West 350 403 34,000  Level Los Angeles Center
06:45PM 34.9342 -118.5042 310° West 362 417 34,000  Level Los Angeles Center
06:46PM 35.0225 -118.6100 316° Northwest 370 426 34,000  Level Los Angeles Center
06:47PM 35.1169 -118.6586 337° Northwest 371 427 34,100 780 Climbing Los Angeles Center
06:48PM 35.2139 -118.6931 344° North 364 419 35,700 1,380 Climbing Los Angeles Center
06:49PM 35.3000 -118.7281 342° North 337 388 37,000 960 Climbing Los Angeles Center
06:50PM 35.3847 -118.7633 341° North 325 374 37,700 540 Climbing Los Angeles Center
06:51PM 35.4722 -118.7989 342° North 328 377 38,200 480 Climbing Los Angeles Center
06:52PM 35.5867 -118.8431 343° North 357 411 38,700 420 Climbing Los Angeles Center
06:53PM 35.6814 -118.8811 342° North 360 414 39,100 480 Climbing Los Angeles Center
06:54PM 35.7750 -118.9206 341° North 356 410 39,800 420 Climbing Los Angeles Center
06:55PM 35.8675 -118.9575 342° North 353 406 40,000 60 Climbing Los Angeles Center
06:56PM 35.9608 -118.9944 342° North 358 412 40,000  Level Oakland Center
06:57PM 36.0558 -119.0331 342° North 360 414 40,000  Level Oakland Center
06:58PM 36.1503 -119.0703 342° North 359 413 40,000  Level Oakland Center
06:59PM 36.2631 -119.1164 342° North 357 411 40,000  Level Oakland Center
07:00PM 36.3592 -119.1564 341° North 358 412 40,000  Level Oakland Center
07:01PM 36.4528 -119.1944 342° North 356 410 40,000  Level Oakland Center
07:02PM 36.5461 -119.2336 341° North 354 407 40,000  Level Oakland Center
07:03PM 36.6392 -119.2714 342° North 353 406 40,000  Level Oakland Center
07:04PM 36.7317 -119.3097 342° North 351 404 40,000  Level Oakland Center
07:05PM 36.8242 -119.3500 341° North 352 405 40,000  Level Oakland Center
07:06PM 36.9144 -119.3878 342° North 347 399 40,000  Level Oakland Center
07:08PM 37.0036 -119.4250 342° North 341 392 40,000  Level Oakland Center
07:09PM 37.1083 -119.4706 341° North 335 386 40,000  Level Oakland Center
07:10PM 37.1964 -119.5061 342° North 332 382 40,000  Level Oakland Center
07:11PM 37.2825 -119.5428 341° North 327 376 40,000  Level Oakland Center
07:12PM 37.3678 -119.5783 342° North 333 383 40,000  Level Oakland Center
07:14PM 37.5442 -119.6528 342° North 337 388 40,000  Level Oakland Center
07:15PM 37.6322 -119.6867 343° North 328 377 40,000  Level Oakland Center
07:16PM 37.7208 -119.7233 342° North 336 387 40,000  Level Oakland Center
07:17PM 37.8283 -119.7697 341° North 339 390 40,000  Level Oakland Center
07:18PM 37.9194 -119.8086 341° North 344 396 40,000  Level Oakland Center
07:19PM 38.0081 -119.8467 341° North 340 391 40,000  Level Oakland Center
07:20PM 38.0992 -119.8847 342° North 341 392 40,000  Level Oakland Center
07:21PM 38.1867 -119.9242 340° North 338 389 40,000  Level Oakland Center
07:22PM 38.2761 -119.9617 342° North 339 390 40,000  Level Oakland Center
07:23PM 38.3656 -120.0022 340° North 342 394 40,000  Level Oakland Center
07:24PM 38.4581 -120.0411 342° North 347 399 40,000  Level Oakland Center
07:25PM 38.5486 -120.0800 341° North 347 399 40,000  Level Oakland Center
07:26PM 38.6550 -120.1267 341° North 340 391 40,000  Level Oakland Center
07:27PM 38.7428 -120.1661 341° North 336 387 40,000  Level Oakland Center
07:28PM 38.8333 -120.2056 341° North 343 395 40,000  Level Oakland Center
07:29PM 38.9228 -120.2453 341° North 341 392 40,000  Level Oakland Center
07:30PM 39.0108 -120.2844 341° North 339 390 40,000  Level Oakland Center
07:31PM 39.1011 -120.3244 341° North 342 394 40,000  Level Oakland Center
07:32PM 39.1911 -120.3636 341° North 343 395 40,000  Level Oakland Center
07:33PM 39.2792 -120.4028 341° North 337 388 40,000  Level Oakland Center
07:34PM 39.3669 -120.4433 340° North 336 387 40,000  Level Oakland Center
07:35PM 39.4750 -120.4906 341° North 341 392 40,000  Level Oakland Center
07:36PM 39.5639 -120.5303 341° North 340 391 40,000  Level Oakland Center
07:37PM 39.6544 -120.5719 340° North 344 396 40,000  Level Oakland Center
07:38PM 39.7439 -120.6111 341° North 341 392 40,000  Level Oakland Center
07:39PM 39.8333 -120.6539 340° North 342 394 40,000  Level Oakland Center
07:40PM 39.9247 -120.6942 341° North 347 399 40,000  Level Oakland Center
07:41PM 40.0253 -120.7389 341° North 343 395 40,000  Level Oakland Center
07:42PM 40.1156 -120.7814 340° North 346 398 40,000  Level Oakland Center
07:43PM 40.2053 -120.8206 342° North 344 396 40,000  Level Oakland Center
07:44PM 40.2967 -120.8636 340° North 349 402 40,000  Level Oakland Center
07:45PM 40.3869 -120.9056 341° North 344 396 40,000  Level Oakland Center
07:46PM 40.4769 -120.9464 341° North 344 396 40,000  Level Oakland Center
07:47PM 40.5775 -120.9953 340° North 344 396 40,000  Level Oakland Center
07:48PM 40.6511 -121.0261 342° North 347 399 40,000  Level Seattle Center
07:49PM 40.7386 -121.0672 340° North 337 388 40,000  Level Seattle Center
07:50PM 40.8253 -121.1083 340° North 331 381 40,000  Level Seattle Center
07:51PM 40.9128 -121.1497 340° North 333 383 40,000  Level Seattle Center
07:52PM 40.9989 -121.1903 340° North 331 381 40,000  Level Seattle Center
07:53PM 41.0839 -121.2308 340° North 326 375 40,000  Level Seattle Center
07:54PM 41.1697 -121.2711 341° North 327 376 40,000  Level Seattle Center
07:55PM 41.2561 -121.3122 340° North 328 377 40,000  Level Seattle Center
07:56PM 41.3422 -121.3539 340° North 330 380 40,000  Level Seattle Center
07:57PM 41.4269 -121.3953 340° North 326 375 40,000  Level Seattle Center
07:58PM 41.5125 -121.4364 340° North 327 376 40,000  Level Seattle Center
07:59PM 41.5997 -121.4778 340° North 331 381 40,000  Level Seattle Center
08:00PM 41.6847 -121.5189 340° North 327 376 40,000  Level Seattle Center
08:01PM 41.7714 -121.5606 340° North 331 381 40,000  Level Seattle Center
08:02PM 41.8744 -121.6097 340° North 328 377 40,000  Level Seattle Center
08:03PM 41.9600 -121.6503 341° North 328 377 40,000  Level Seattle Center
08:04PM 42.0444 -121.6914 340° North 328 377 40,000  Level Seattle Center
08:05PM 42.1292 -121.7336 340° North 330 380 40,000  Level Seattle Center
08:06PM 42.2144 -121.7742 341° North 329 379 40,000  Level Seattle Center
08:07PM 42.2992 -121.8156 340° North 328 377 40,000  Level Seattle Center
08:08PM 42.3833 -121.8575 340° North 326 375 40,000  Level Seattle Center
08:09PM 42.4692 -121.9000 340° North 328 377 40,000  Level Seattle Center
08:10PM 42.5544 -121.9419 340° North 328 377 40,000  Level Seattle Center
08:11PM 42.6417 -121.9847 340° North 332 382 40,000  Level Seattle Center
08:12PM 42.7456 -122.0356 340° North 332 382 40,000  Level Seattle Center
08:13PM 42.8353 -122.0750 342° North 338 389 40,000  Level Seattle Center
08:14PM 42.9292 -122.0972 350° North 342 394 40,000  Level Seattle Center
08:16PM 43.0217 -122.1231 348° North 341 392 40,000  Level Seattle Center
08:17PM 43.1161 -122.1472 349° North 343 395 40,000  Level Seattle Center
08:18PM 43.2094 -122.1728 349° North 342 394 40,000  Level Seattle Center
08:19PM 43.2975 -122.1969 349° North 346 398 40,000  Level Seattle Center
08:20PM 43.3917 -122.2219 349° North 346 398 40,000  Level Seattle Center
08:21PM 43.5044 -122.2550 348° North 346 398 40,000  Level Seattle Center
08:22PM 43.5983 -122.2800 349° North 346 398 40,000  Level Seattle Center
08:23PM 43.6900 -122.3050 349° North 339 390 40,000  Level Seattle Center
08:24PM 43.7817 -122.3319 348° North 339 390 40,000 -300 Level Seattle Center
08:25PM 43.8725 -122.3572 349° North 335 386 39,400 -1,080 Descending Seattle Center
08:26PM 43.9606 -122.3817 349° North 325 374 37,900 -1,620 Descending Seattle Center
08:27PM 44.0456 -122.4050 349° North 315 362 36,200 -1,740 Descending Seattle Center
08:28PM 44.1311 -122.4311 348° North 316 364 34,400 -1,740 Descending Seattle Center
08:29PM 44.2186 -122.4547 349° North 321 369 32,700 -1,680 Descending Seattle Center
08:30PM 44.3039 -122.4794 348° North 317 365 31,000 -1,740 Descending Seattle Center
08:31PM 44.3897 -122.5042 348° North 316 364 29,200 -1,980 Descending Seattle Center
08:32PM 44.4789 -122.5303 348° North 327 376 27,100 -2,340 Descending Seattle Center
08:33PM 44.5889 -122.5619 348° North 337 388 24,600 -2,220 Descending Seattle Center
08:34PM 44.6803 -122.5881 349° North 337 388 22,600 -2,040 Descending Seattle Center
08:35PM 44.7467 -122.6078 348° North 308 354 21,000 -2,100 Descending Seattle Center
08:35PM 44.7642 -122.6119 350° North 316 364 20,500 -2,820 Descending Seattle Center
08:36PM 44.8294 -122.6322 348° North 287 330 17,900 -3,540 Descending Seattle Center
08:37PM 44.9053 -122.6533 349° North 274 315 14,000 -3,420 Descending Seattle Center
08:38PM 44.9811 -122.6106 22° Northeast 296 341 11,000 -2,760 Descending Seattle Center
08:39PM 45.0597 -122.5606 24° Northeast 285 328 8,400 -2,040 Descending Seattle Center
08:40PM 45.1228 -122.5289 20° North 227 261 6,900 -720 Descending Seattle Center
08:41PM 45.1869 -122.5028 16° North 236 272 7,000 -300 Climbing Seattle Center
08:42PM 45.2547 -122.4764 15° North 243 280 6,300 -600 Descending Seattle Center
08:43PM 45.3281 -122.4511 14° North 271 312 5,800 -900 Descending Seattle Center
08:44PM 45.3967 -122.4261 14° North 235 270 4,700 -1,500 Descending Seattle Center
08:45PM 45.4553 -122.4050 14° North 210 242 2,800 -1,200 Descending Seattle Center
08:46PM 45.5031 -122.3944 North 172 198 2,400 -540 Descending Seattle Center
08:46PM 45.5108 -122.4003 332° Northwest 184 212 2,200 -360 Descending Seattle Center
08:47PM 45.5319 -122.4411 306° West 144 166 2,000 -660 Descending Seattle Center
08:48PM 45.5572 -122.5017 301° West 156 180 1,000 -780 Descending Seattle Center
08:49PM 45.5719 -122.5419 298° West 136 157 500 -600 Descending Seattle Center
08:51PM 45.5833 -122.5833 North  Level FlightAware Approximate